sensor_id;sensor_type;location;lat;lon;timestamp;temperature;humidity
40151;DHT22;25866;52.420;10.640;2022-09-02T00:00:49;15.10;97.30
40151;DHT22;25866;52.420;10.640;2022-09-02T00:03:16;15.10;97.70
40151;DHT22;25866;52.420;10.640;2022-09-02T00:05:42;15.10;97.40
40151;DHT22;25866;52.420;10.640;2022-09-02T00:08:08;15.00;97.40
40151;DHT22;25866;52.420;10.640;2022-09-02T00:10:39;15.10;97.30
40151;DHT22;25866;52.420;10.640;2022-09-02T00:13:07;15.00;97.40
40151;DHT22;25866;52.420;10.640;2022-09-02T00:15:33;15.10;97.40
40151;DHT22;25866;52.420;10.640;2022-09-02T00:18:00;15.10;97.60
40151;DHT22;25866;52.420;10.640;2022-09-02T00:20:27;15.10;97.40
40151;DHT22;25866;52.420;10.640;2022-09-02T00:22:53;15.10;97.40
40151;DHT22;25866;52.420;10.640;2022-09-02T00:25:19;15.00;97.70
40151;DHT22;25866;52.420;10.640;2022-09-02T00:27:45;15.10;97.60
40151;DHT22;25866;52.420;10.640;2022-09-02T00:30:11;15.00;97.90
40151;DHT22;25866;52.420;10.640;2022-09-02T00:32:37;14.90;98.10
40151;DHT22;25866;52.420;10.640;2022-09-02T00:35:03;14.90;98.10
40151;DHT22;25866;52.420;10.640;2022-09-02T00:37:30;14.90;98.40
40151;DHT22;25866;52.420;10.640;2022-09-02T00:39:58;14.90;98.30
40151;DHT22;25866;52.420;10.640;2022-09-02T00:42:24;14.80;98.60
40151;DHT22;25866;52.420;10.640;2022-09-02T00:44:51;14.80;98.60
40151;DHT22;25866;52.420;10.640;2022-09-02T00:47:18;14.80;98.80
40151;DHT22;25866;52.420;10.640;2022-09-02T00:49:49;14.80;98.90
40151;DHT22;25866;52.420;10.640;2022-09-02T00:52:29;14.80;99.00
40151;DHT22;25866;52.420;10.640;2022-09-02T00:55:01;14.80;98.70
40151;DHT22;25866;52.420;10.640;2022-09-02T00:57:32;14.70;99.20
40151;DHT22;25866;52.420;10.640;2022-09-02T01:02:38;14.70;98.90
40151;DHT22;25866;52.420;10.640;2022-09-02T01:05:07;14.70;99.10
40151;DHT22;25866;52.420;10.640;2022-09-02T01:07:34;14.60;99.50
40151;DHT22;25866;52.420;10.640;2022-09-02T01:10:05;14.60;99.30
40151;DHT22;25866;52.420;10.640;2022-09-02T01:12:31;14.50;99.80
40151;DHT22;25866;52.420;10.640;2022-09-02T01:14:57;14.40;99.90
40151;DHT22;25866;52.420;10.640;2022-09-02T01:17:24;14.40;99.90
40151;DHT22;25866;52.420;10.640;2022-09-02T01:19:56;14.40;99.90
40151;DHT22;25866;52.420;10.640;2022-09-02T01:22:28;14.30;99.90
40151;DHT22;25866;52.420;10.640;2022-09-02T01:24:56;14.30;99.90
40151;DHT22;25866;52.420;10.640;2022-09-02T01:27:24;14.30;99.90
40151;DHT22;25866;52.420;10.640;2022-09-02T01:29:53;14.30;99.90
40151;DHT22;25866;52.420;10.640;2022-09-02T01:32:20;14.30;99.90
40151;DHT22;25866;52.420;10.640;2022-09-02T01:34:47;14.30;99.90
40151;DHT22;25866;52.420;10.640;2022-09-02T01:37:13;14.30;99.90
40151;DHT22;25866;52.420;10.640;2022-09-02T01:39:39;14.20;99.90
40151;DHT22;25866;52.420;10.640;2022-09-02T01:42:05;14.20;99.90
40151;DHT22;25866;52.420;10.640;2022-09-02T01:44:32;14.10;99.90
40151;DHT22;25866;52.420;10.640;2022-09-02T01:46:59;14.10;99.90
40151;DHT22;25866;52.420;10.640;2022-09-02T01:49:24;14.10;99.90
40151;DHT22;25866;52.420;10.640;2022-09-02T01:51:54;14.00;99.90
40151;DHT22;25866;52.420;10.640;2022-09-02T01:54:20;14.00;99.90
40151;DHT22;25866;52.420;10.640;2022-09-02T01:56:46;14.10;99.90
40151;DHT22;25866;52.420;10.640;2022-09-02T01:59:11;14.10;99.90
40151;DHT22;25866;52.420;10.640;2022-09-02T02:01:43;14.10;99.90
40151;DHT22;25866;52.420;10.640;2022-09-02T02:04:09;14.20;99.90
40151;DHT22;25866;52.420;10.640;2022-09-02T02:06:35;14.20;99.90
40151;DHT22;25866;52.420;10.640;2022-09-02T02:09:04;14.10;99.90
40151;DHT22;25866;52.420;10.640;2022-09-02T02:11:29;14.10;99.90
40151;DHT22;25866;52.420;10.640;2022-09-02T02:13:55;14.00;99.90
40151;DHT22;25866;52.420;10.640;2022-09-02T02:16:20;13.90;99.90
40151;DHT22;25866;52.420;10.640;2022-09-02T02:18:46;13.80;99.90
40151;DHT22;25866;52.420;10.640;2022-09-02T02:21:12;13.80;99.90
40151;DHT22;25866;52.420;10.640;2022-09-02T02:23:38;13.70;99.90
40151;DHT22;25866;52.420;10.640;2022-09-02T02:26:04;13.70;99.90
40151;DHT22;25866;52.420;10.640;2022-09-02T02:28:29;13.70;99.90
40151;DHT22;25866;52.420;10.640;2022-09-02T02:30:55;13.80;99.90
40151;DHT22;25866;52.420;10.640;2022-09-02T02:33:21;13.80;99.90
40151;DHT22;25866;52.420;10.640;2022-09-02T02:35:47;13.80;99.90
40151;DHT22;25866;52.420;10.640;2022-09-02T02:38:12;13.80;99.90
40151;DHT22;25866;52.420;10.640;2022-09-02T02:40:38;13.80;99.90
40151;DHT22;25866;52.420;10.640;2022-09-02T02:43:04;13.80;99.90
40151;DHT22;25866;52.420;10.640;2022-09-02T02:45:29;13.80;99.90
40151;DHT22;25866;52.420;10.640;2022-09-02T02:47:55;13.70;99.90
40151;DHT22;25866;52.420;10.640;2022-09-02T02:50:22;13.70;99.90
40151;DHT22;25866;52.420;10.640;2022-09-02T02:52:50;13.70;99.90
40151;DHT22;25866;52.420;10.640;2022-09-02T02:55:18;13.70;99.90
40151;DHT22;25866;52.420;10.640;2022-09-02T02:57:44;13.60;99.90
40151;DHT22;25866;52.420;10.640;2022-09-02T03:00:24;13.60;99.90
40151;DHT22;25866;52.420;10.640;2022-09-02T03:03:05;13.60;99.90
40151;DHT22;25866;52.420;10.640;2022-09-02T03:05:31;13.50;99.90
40151;DHT22;25866;52.420;10.640;2022-09-02T03:07:58;13.60;99.90
40151;DHT22;25866;52.420;10.640;2022-09-02T03:10:24;13.50;99.90
40151;DHT22;25866;52.420;10.640;2022-09-02T03:12:51;13.50;99.90
40151;DHT22;25866;52.420;10.640;2022-09-02T03:15:18;13.50;99.90
40151;DHT22;25866;52.420;10.640;2022-09-02T03:17:48;13.40;99.90
40151;DHT22;25866;52.420;10.640;2022-09-02T03:20:15;13.40;99.90
40151;DHT22;25866;52.420;10.640;2022-09-02T03:22:42;13.30;99.90
40151;DHT22;25866;52.420;10.640;2022-09-02T03:25:11;13.30;99.90
40151;DHT22;25866;52.420;10.640;2022-09-02T03:27:37;13.30;99.90
40151;DHT22;25866;52.420;10.640;2022-09-02T03:30:06;13.30;99.90
40151;DHT22;25866;52.420;10.640;2022-09-02T03:32:32;13.30;99.90
40151;DHT22;25866;52.420;10.640;2022-09-02T03:34:58;13.30;99.90
40151;DHT22;25866;52.420;10.640;2022-09-02T03:37:25;13.30;99.90
40151;DHT22;25866;52.420;10.640;2022-09-02T03:39:50;13.30;99.90
40151;DHT22;25866;52.420;10.640;2022-09-02T03:42:16;13.20;99.90
40151;DHT22;25866;52.420;10.640;2022-09-02T03:44:42;13.10;99.90
40151;DHT22;25866;52.420;10.640;2022-09-02T03:47:08;13.10;99.90
40151;DHT22;25866;52.420;10.640;2022-09-02T03:49:34;13.00;99.90
40151;DHT22;25866;52.420;10.640;2022-09-02T03:52:00;13.00;99.90
40151;DHT22;25866;52.420;10.640;2022-09-02T03:54:26;13.00;99.90
40151;DHT22;25866;52.420;10.640;2022-09-02T03:56:52;13.00;99.90
40151;DHT22;25866;52.420;10.640;2022-09-02T03:59:18;13.00;99.90
40151;DHT22;25866;52.420;10.640;2022-09-02T04:01:44;13.00;99.90
40151;DHT22;25866;52.420;10.640;2022-09-02T04:04:10;13.00;99.90
40151;DHT22;25866;52.420;10.640;2022-09-02T04:06:36;13.10;99.90
40151;DHT22;25866;52.420;10.640;2022-09-02T04:09:03;13.10;99.90
40151;DHT22;25866;52.420;10.640;2022-09-02T04:11:29;13.00;99.90
40151;DHT22;25866;52.420;10.640;2022-09-02T04:13:55;13.00;99.90
40151;DHT22;25866;52.420;10.640;2022-09-02T04:16:23;13.00;99.90
40151;DHT22;25866;52.420;10.640;2022-09-02T04:18:57;13.00;99.90
40151;DHT22;25866;52.420;10.640;2022-09-02T04:21:24;12.90;99.90
40151;DHT22;25866;52.420;10.640;2022-09-02T04:23:50;12.90;99.90
40151;DHT22;25866;52.420;10.640;2022-09-02T04:26:18;12.90;99.90
40151;DHT22;25866;52.420;10.640;2022-09-02T04:28:45;12.80;99.90
40151;DHT22;25866;52.420;10.640;2022-09-02T04:31:13;12.80;99.90
40151;DHT22;25866;52.420;10.640;2022-09-02T04:33:40;12.80;99.90
40151;DHT22;25866;52.420;10.640;2022-09-02T04:36:09;12.80;99.90
40151;DHT22;25866;52.420;10.640;2022-09-02T04:38:35;12.70;99.90
40151;DHT22;25866;52.420;10.640;2022-09-02T04:41:10;12.80;99.90
40151;DHT22;25866;52.420;10.640;2022-09-02T04:43:37;12.80;99.90
40151;DHT22;25866;52.420;10.640;2022-09-02T04:46:08;12.70;99.90
40151;DHT22;25866;52.420;10.640;2022-09-02T04:48:35;12.70;99.90
40151;DHT22;25866;52.420;10.640;2022-09-02T04:51:06;12.70;99.90
40151;DHT22;25866;52.420;10.640;2022-09-02T04:53:32;12.70;99.90
40151;DHT22;25866;52.420;10.640;2022-09-02T04:55:58;12.80;99.90
40151;DHT22;25866;52.420;10.640;2022-09-02T04:58:24;12.70;99.90
40151;DHT22;25866;52.420;10.640;2022-09-02T05:00:50;12.80;99.90
40151;DHT22;25866;52.420;10.640;2022-09-02T05:03:15;12.70;99.90
40151;DHT22;25866;52.420;10.640;2022-09-02T05:05:42;12.80;99.90
40151;DHT22;25866;52.420;10.640;2022-09-02T05:08:08;12.80;99.90
40151;DHT22;25866;52.420;10.640;2022-09-02T05:10:34;12.80;99.90
40151;DHT22;25866;52.420;10.640;2022-09-02T05:13:00;12.80;99.90
40151;DHT22;25866;52.420;10.640;2022-09-02T05:15:25;12.90;99.90
40151;DHT22;25866;52.420;10.640;2022-09-02T05:17:51;12.90;99.90
40151;DHT22;25866;52.420;10.640;2022-09-02T05:20:17;12.90;99.90
40151;DHT22;25866;52.420;10.640;2022-09-02T05:22:43;12.90;99.90
40151;DHT22;25866;52.420;10.640;2022-09-02T05:25:09;12.90;99.90
40151;DHT22;25866;52.420;10.640;2022-09-02T05:27:36;12.90;99.90
40151;DHT22;25866;52.420;10.640;2022-09-02T05:30:02;12.90;99.90
40151;DHT22;25866;52.420;10.640;2022-09-02T05:32:28;12.90;99.90
40151;DHT22;25866;52.420;10.640;2022-09-02T05:34:55;13.00;99.90
40151;DHT22;25866;52.420;10.640;2022-09-02T05:37:21;13.00;99.90
40151;DHT22;25866;52.420;10.640;2022-09-02T05:39:49;13.00;99.90
40151;DHT22;25866;52.420;10.640;2022-09-02T05:42:14;13.10;99.90
40151;DHT22;25866;52.420;10.640;2022-09-02T05:44:41;13.10;99.90
40151;DHT22;25866;52.420;10.640;2022-09-02T05:47:10;13.20;99.90
40151;DHT22;25866;52.420;10.640;2022-09-02T05:49:36;13.30;99.90
40151;DHT22;25866;52.420;10.640;2022-09-02T05:52:02;13.30;99.90
40151;DHT22;25866;52.420;10.640;2022-09-02T05:54:31;13.30;99.90
40151;DHT22;25866;52.420;10.640;2022-09-02T05:57:00;13.40;99.90
40151;DHT22;25866;52.420;10.640;2022-09-02T05:59:28;13.40;99.90
40151;DHT22;25866;52.420;10.640;2022-09-02T06:01:54;13.50;99.90
40151;DHT22;25866;52.420;10.640;2022-09-02T06:04:20;13.50;99.90
40151;DHT22;25866;52.420;10.640;2022-09-02T06:06:48;13.50;99.90
40151;DHT22;25866;52.420;10.640;2022-09-02T06:09:17;13.60;99.90
40151;DHT22;25866;52.420;10.640;2022-09-02T06:11:44;13.50;99.90
40151;DHT22;25866;52.420;10.640;2022-09-02T06:14:18;13.50;99.90
40151;DHT22;25866;52.420;10.640;2022-09-02T06:16:46;13.50;99.90
40151;DHT22;25866;52.420;10.640;2022-09-02T06:19:12;13.60;99.90
40151;DHT22;25866;52.420;10.640;2022-09-02T06:21:38;13.60;99.90
40151;DHT22;25866;52.420;10.640;2022-09-02T06:24:09;13.70;99.90
40151;DHT22;25866;52.420;10.640;2022-09-02T06:26:37;13.80;99.90
40151;DHT22;25866;52.420;10.640;2022-09-02T06:29:04;13.80;99.90
40151;DHT22;25866;52.420;10.640;2022-09-02T06:31:30;13.90;99.90
40151;DHT22;25866;52.420;10.640;2022-09-02T06:33:56;13.90;99.90
40151;DHT22;25866;52.420;10.640;2022-09-02T06:36:25;14.00;99.90
40151;DHT22;25866;52.420;10.640;2022-09-02T06:38:52;14.00;99.90
40151;DHT22;25866;52.420;10.640;2022-09-02T06:41:21;14.10;99.90
40151;DHT22;25866;52.420;10.640;2022-09-02T06:43:48;14.20;99.90
40151;DHT22;25866;52.420;10.640;2022-09-02T06:46:21;14.20;99.90
40151;DHT22;25866;52.420;10.640;2022-09-02T06:48:46;14.20;99.90
40151;DHT22;25866;52.420;10.640;2022-09-02T06:51:23;14.30;99.90
40151;DHT22;25866;52.420;10.640;2022-09-02T06:53:50;14.30;99.90
40151;DHT22;25866;52.420;10.640;2022-09-02T06:56:15;14.30;99.90
40151;DHT22;25866;52.420;10.640;2022-09-02T06:58:41;14.40;99.90
40151;DHT22;25866;52.420;10.640;2022-09-02T07:01:07;14.40;99.90
40151;DHT22;25866;52.420;10.640;2022-09-02T07:03:33;14.40;99.90
40151;DHT22;25866;52.420;10.640;2022-09-02T07:06:18;14.50;99.90
40151;DHT22;25866;52.420;10.640;2022-09-02T07:08:44;14.60;99.90
40151;DHT22;25866;52.420;10.640;2022-09-02T07:11:21;14.60;99.90
40151;DHT22;25866;52.420;10.640;2022-09-02T07:13:49;14.70;99.90
40151;DHT22;25866;52.420;10.640;2022-09-02T07:16:15;14.70;99.90
40151;DHT22;25866;52.420;10.640;2022-09-02T07:18:41;14.80;99.90
40151;DHT22;25866;52.420;10.640;2022-09-02T07:21:09;14.90;99.90
40151;DHT22;25866;52.420;10.640;2022-09-02T07:23:35;15.00;99.90
40151;DHT22;25866;52.420;10.640;2022-09-02T07:26:01;15.00;99.90
40151;DHT22;25866;52.420;10.640;2022-09-02T07:28:26;15.10;99.90
40151;DHT22;25866;52.420;10.640;2022-09-02T07:30:52;15.20;99.90
40151;DHT22;25866;52.420;10.640;2022-09-02T07:33:20;15.30;99.90
40151;DHT22;25866;52.420;10.640;2022-09-02T07:35:46;15.40;99.90
40151;DHT22;25866;52.420;10.640;2022-09-02T07:38:12;15.60;99.90
40151;DHT22;25866;52.420;10.640;2022-09-02T07:40:40;15.70;99.90
40151;DHT22;25866;52.420;10.640;2022-09-02T07:43:08;15.80;99.90
40151;DHT22;25866;52.420;10.640;2022-09-02T07:45:35;15.90;99.90
40151;DHT22;25866;52.420;10.640;2022-09-02T07:48:01;16.00;99.90
40151;DHT22;25866;52.420;10.640;2022-09-02T07:50:33;16.10;99.90
40151;DHT22;25866;52.420;10.640;2022-09-02T07:52:59;16.20;99.90
40151;DHT22;25866;52.420;10.640;2022-09-02T07:55:25;16.30;99.90
40151;DHT22;25866;52.420;10.640;2022-09-02T07:57:52;16.40;99.90
40151;DHT22;25866;52.420;10.640;2022-09-02T08:00:19;16.50;99.90
40151;DHT22;25866;52.420;10.640;2022-09-02T08:02:45;16.70;99.90
40151;DHT22;25866;52.420;10.640;2022-09-02T08:05:13;16.80;99.90
40151;DHT22;25866;52.420;10.640;2022-09-02T08:07:39;17.00;99.90
40151;DHT22;25866;52.420;10.640;2022-09-02T08:10:07;17.00;99.70
40151;DHT22;25866;52.420;10.640;2022-09-02T08:12:35;17.10;99.80
40151;DHT22;25866;52.420;10.640;2022-09-02T08:15:01;17.20;99.40
40151;DHT22;25866;52.420;10.640;2022-09-02T08:17:26;17.40;99.00
40151;DHT22;25866;52.420;10.640;2022-09-02T08:19:52;17.40;98.50
40151;DHT22;25866;52.420;10.640;2022-09-02T08:22:18;17.50;98.70
40151;DHT22;25866;52.420;10.640;2022-09-02T08:24:43;17.60;98.40
40151;DHT22;25866;52.420;10.640;2022-09-02T08:27:09;17.70;98.60
40151;DHT22;25866;52.420;10.640;2022-09-02T08:29:35;17.80;97.90
40151;DHT22;25866;52.420;10.640;2022-09-02T08:32:00;17.90;98.10
40151;DHT22;25866;52.420;10.640;2022-09-02T08:34:26;18.00;98.10
40151;DHT22;25866;52.420;10.640;2022-09-02T08:36:52;18.10;97.90
40151;DHT22;25866;52.420;10.640;2022-09-02T08:39:18;18.20;96.90
40151;DHT22;25866;52.420;10.640;2022-09-02T08:42:51;18.30;96.80
40151;DHT22;25866;52.420;10.640;2022-09-02T08:44:46;18.40;97.00
40151;DHT22;25866;52.420;10.640;2022-09-02T08:47:16;18.50;97.20
40151;DHT22;25866;52.420;10.640;2022-09-02T08:49:50;18.60;97.30
40151;DHT22;25866;52.420;10.640;2022-09-02T08:55:20;18.90;96.20
40151;DHT22;25866;52.420;10.640;2022-09-02T08:57:48;18.90;96.10
40151;DHT22;25866;52.420;10.640;2022-09-02T09:00:14;19.00;95.90
40151;DHT22;25866;52.420;10.640;2022-09-02T09:05:46;19.30;95.50
40151;DHT22;25866;52.420;10.640;2022-09-02T09:16:57;19.70;94.90
40151;DHT22;25866;52.420;10.640;2022-09-02T09:22:14;19.90;94.30
40151;DHT22;25866;52.420;10.640;2022-09-02T09:24:44;19.90;93.70
40151;DHT22;25866;52.420;10.640;2022-09-02T09:27:16;20.00;93.70
40151;DHT22;25866;52.420;10.640;2022-09-02T09:29:42;20.10;93.80
40151;DHT22;25866;52.420;10.640;2022-09-02T09:32:35;20.20;93.60
40151;DHT22;25866;52.420;10.640;2022-09-02T09:35:08;20.30;93.40
40151;DHT22;25866;52.420;10.640;2022-09-02T09:37:43;20.30;93.30
40151;DHT22;25866;52.420;10.640;2022-09-02T09:40:21;20.40;92.80
40151;DHT22;25866;52.420;10.640;2022-09-02T09:43:11;20.60;92.50
40151;DHT22;25866;52.420;10.640;2022-09-02T09:45:42;20.60;92.60
40151;DHT22;25866;52.420;10.640;2022-09-02T09:48:27;20.60;92.10
40151;DHT22;25866;52.420;10.640;2022-09-02T09:53:26;20.50;91.60
40151;DHT22;25866;52.420;10.640;2022-09-02T09:56:00;20.70;91.70
40151;DHT22;25866;52.420;10.640;2022-09-02T09:58:41;20.90;90.70
40151;DHT22;25866;52.420;10.640;2022-09-02T10:01:15;21.10;90.10
40151;DHT22;25866;52.420;10.640;2022-09-02T10:04:03;21.20;87.00
40151;DHT22;25866;52.420;10.640;2022-09-02T10:11:54;21.60;85.10
40151;DHT22;25866;52.420;10.640;2022-09-02T10:14:20;21.80;84.50
40151;DHT22;25866;52.420;10.640;2022-09-02T10:22:36;22.10;82.40
40151;DHT22;25866;52.420;10.640;2022-09-02T10:25:31;22.20;82.40
40151;DHT22;25866;52.420;10.640;2022-09-02T10:30:59;22.40;81.40
40151;DHT22;25866;52.420;10.640;2022-09-02T10:36:27;22.30;81.30
40151;DHT22;25866;52.420;10.640;2022-09-02T10:41:48;22.60;80.80
40151;DHT22;25866;52.420;10.640;2022-09-02T10:47:34;22.70;81.80
40151;DHT22;25866;52.420;10.640;2022-09-02T10:50:19;22.80;81.70
40151;DHT22;25866;52.420;10.640;2022-09-02T10:55:54;23.00;78.80
40151;DHT22;25866;52.420;10.640;2022-09-02T11:01:32;23.10;78.90
40151;DHT22;25866;52.420;10.640;2022-09-02T11:06:49;23.30;78.40
40151;DHT22;25866;52.420;10.640;2022-09-02T11:09:39;23.40;77.30
40151;DHT22;25866;52.420;10.640;2022-09-02T11:12:19;23.50;77.90
40151;DHT22;25866;52.420;10.640;2022-09-02T11:23:19;23.90;76.90
40151;DHT22;25866;52.420;10.640;2022-09-02T11:25:54;24.00;76.90
40151;DHT22;25866;52.420;10.640;2022-09-02T11:28:35;24.10;76.80
40151;DHT22;25866;52.420;10.640;2022-09-02T11:31:21;24.20;75.70
40151;DHT22;25866;52.420;10.640;2022-09-02T11:34:00;24.10;73.70
40151;DHT22;25866;52.420;10.640;2022-09-02T11:36:27;23.80;75.50
40151;DHT22;25866;52.420;10.640;2022-09-02T11:39:03;23.80;74.90
40151;DHT22;25866;52.420;10.640;2022-09-02T11:52:48;24.20;75.10
40151;DHT22;25866;52.420;10.640;2022-09-02T11:55:23;24.30;73.70
40151;DHT22;25866;52.420;10.640;2022-09-02T11:57:54;24.40;75.00
40151;DHT22;25866;52.420;10.640;2022-09-02T12:00:28;24.50;73.90
40151;DHT22;25866;52.420;10.640;2022-09-02T12:07:56;24.50;73.00
40151;DHT22;25866;52.420;10.640;2022-09-02T12:13:36;24.80;71.10
40151;DHT22;25866;52.420;10.640;2022-09-02T12:18:37;24.80;71.30
40151;DHT22;25866;52.420;10.640;2022-09-02T12:21:16;24.90;71.40
40151;DHT22;25866;52.420;10.640;2022-09-02T12:26:27;25.10;71.10
40151;DHT22;25866;52.420;10.640;2022-09-02T12:31:45;25.30;70.80
40151;DHT22;25866;52.420;10.640;2022-09-02T12:36:58;25.50;69.90
40151;DHT22;25866;52.420;10.640;2022-09-02T12:42:02;25.50;69.30
40151;DHT22;25866;52.420;10.640;2022-09-02T12:50:21;24.70;71.00
40151;DHT22;25866;52.420;10.640;2022-09-02T12:52:50;24.60;70.30
40151;DHT22;25866;52.420;10.640;2022-09-02T12:55:30;24.30;70.40
40151;DHT22;25866;52.420;10.640;2022-09-02T12:58:08;24.30;71.20
40151;DHT22;25866;52.420;10.640;2022-09-02T13:00:56;24.10;70.30
40151;DHT22;25866;52.420;10.640;2022-09-02T13:11:55;23.80;70.40
40151;DHT22;25866;52.420;10.640;2022-09-02T13:18:30;24.00;71.10
40151;DHT22;25866;52.420;10.640;2022-09-02T13:23:46;23.60;70.00
40151;DHT22;25866;52.420;10.640;2022-09-02T13:26:48;23.50;71.80
40151;DHT22;25866;52.420;10.640;2022-09-02T13:32:13;23.70;72.00
40151;DHT22;25866;52.420;10.640;2022-09-02T13:34:42;23.90;70.80
40151;DHT22;25866;52.420;10.640;2022-09-02T13:37:28;23.90;71.10
40151;DHT22;25866;52.420;10.640;2022-09-02T13:39:55;23.80;70.60
40151;DHT22;25866;52.420;10.640;2022-09-02T13:42:27;23.70;70.70
40151;DHT22;25866;52.420;10.640;2022-09-02T13:45:25;23.60;71.10
40151;DHT22;25866;52.420;10.640;2022-09-02T13:47:53;23.50;70.60
40151;DHT22;25866;52.420;10.640;2022-09-02T13:50:24;23.30;70.60
40151;DHT22;25866;52.420;10.640;2022-09-02T13:52:56;23.20;71.10
40151;DHT22;25866;52.420;10.640;2022-09-02T13:55:23;23.20;71.70
40151;DHT22;25866;52.420;10.640;2022-09-02T13:58:04;23.30;72.40
40151;DHT22;25866;52.420;10.640;2022-09-02T14:00:40;23.40;72.70
40151;DHT22;25866;52.420;10.640;2022-09-02T14:03:17;23.70;70.70
40151;DHT22;25866;52.420;10.640;2022-09-02T14:05:44;23.80;71.20
40151;DHT22;25866;52.420;10.640;2022-09-02T14:08:14;23.60;70.10
40151;DHT22;25866;52.420;10.640;2022-09-02T14:10:41;23.50;70.90
40151;DHT22;25866;52.420;10.640;2022-09-02T14:13:09;23.30;70.70
40151;DHT22;25866;52.420;10.640;2022-09-02T14:15:35;23.20;71.70
40151;DHT22;25866;52.420;10.640;2022-09-02T14:18:18;23.30;72.30
40151;DHT22;25866;52.420;10.640;2022-09-02T14:20:57;23.40;70.40
40151;DHT22;25866;52.420;10.640;2022-09-02T14:23:25;23.30;71.80
40151;DHT22;25866;52.420;10.640;2022-09-02T14:25:57;23.20;72.70
40151;DHT22;25866;52.420;10.640;2022-09-02T14:28:29;23.10;71.20
40151;DHT22;25866;52.420;10.640;2022-09-02T14:31:01;23.00;72.10
40151;DHT22;25866;52.420;10.640;2022-09-02T14:33:37;23.00;72.70
40151;DHT22;25866;52.420;10.640;2022-09-02T14:41:32;23.10;71.10
40151;DHT22;25866;52.420;10.640;2022-09-02T14:44:14;23.30;71.10
40151;DHT22;25866;52.420;10.640;2022-09-02T14:46:52;23.30;70.50
40151;DHT22;25866;52.420;10.640;2022-09-02T14:49:23;23.30;72.40
40151;DHT22;25866;52.420;10.640;2022-09-02T14:51:56;23.40;71.60
40151;DHT22;25866;52.420;10.640;2022-09-02T14:54:53;23.40;73.90
40151;DHT22;25866;52.420;10.640;2022-09-02T14:57:29;23.30;77.90
40151;DHT22;25866;52.420;10.640;2022-09-02T14:59:58;23.10;74.70
40151;DHT22;25866;52.420;10.640;2022-09-02T15:04:57;22.90;77.20
40151;DHT22;25866;52.420;10.640;2022-09-02T15:07:23;22.90;75.20
40151;DHT22;25866;52.420;10.640;2022-09-02T15:09:50;22.70;76.00
40151;DHT22;25866;52.420;10.640;2022-09-02T15:12:28;22.50;78.70
40151;DHT22;25866;52.420;10.640;2022-09-02T15:14:55;22.40;73.40
40151;DHT22;25866;52.420;10.640;2022-09-02T15:17:21;22.30;74.50
40151;DHT22;25866;52.420;10.640;2022-09-02T15:19:47;22.30;77.60
40151;DHT22;25866;52.420;10.640;2022-09-02T15:22:14;22.30;77.40
40151;DHT22;25866;52.420;10.640;2022-09-02T15:24:40;22.20;78.10
40151;DHT22;25866;52.420;10.640;2022-09-02T15:27:11;22.20;75.00
40151;DHT22;25866;52.420;10.640;2022-09-02T15:29:38;22.20;75.30
40151;DHT22;25866;52.420;10.640;2022-09-02T15:32:04;22.10;75.10
40151;DHT22;25866;52.420;10.640;2022-09-02T15:34:31;22.10;75.90
40151;DHT22;25866;52.420;10.640;2022-09-02T15:36:57;22.20;74.80
40151;DHT22;25866;52.420;10.640;2022-09-02T15:39:25;22.20;75.80
40151;DHT22;25866;52.420;10.640;2022-09-02T15:41:51;22.30;75.50
40151;DHT22;25866;52.420;10.640;2022-09-02T15:44:20;22.30;76.20
40151;DHT22;25866;52.420;10.640;2022-09-02T15:46:46;22.10;76.40
40151;DHT22;25866;52.420;10.640;2022-09-02T15:49:13;22.00;77.30
40151;DHT22;25866;52.420;10.640;2022-09-02T15:51:44;22.00;76.20
40151;DHT22;25866;52.420;10.640;2022-09-02T15:54:11;21.90;76.40
40151;DHT22;25866;52.420;10.640;2022-09-02T15:56:39;21.90;75.40
40151;DHT22;25866;52.420;10.640;2022-09-02T15:59:11;21.80;75.30
40151;DHT22;25866;52.420;10.640;2022-09-02T16:01:41;21.80;75.60
40151;DHT22;25866;52.420;10.640;2022-09-02T16:04:08;21.80;76.00
40151;DHT22;25866;52.420;10.640;2022-09-02T16:06:37;21.80;76.40
40151;DHT22;25866;52.420;10.640;2022-09-02T16:09:08;21.80;76.00
40151;DHT22;25866;52.420;10.640;2022-09-02T16:11:38;21.80;78.00
40151;DHT22;25866;52.420;10.640;2022-09-02T16:14:05;21.70;77.90
40151;DHT22;25866;52.420;10.640;2022-09-02T16:16:31;21.70;76.90
40151;DHT22;25866;52.420;10.640;2022-09-02T16:19:00;21.70;77.10
40151;DHT22;25866;52.420;10.640;2022-09-02T16:21:26;21.70;75.40
40151;DHT22;25866;52.420;10.640;2022-09-02T16:23:53;21.70;75.50
40151;DHT22;25866;52.420;10.640;2022-09-02T16:26:33;21.60;75.40
40151;DHT22;25866;52.420;10.640;2022-09-02T16:29:02;21.60;75.30
40151;DHT22;25866;52.420;10.640;2022-09-02T16:31:32;21.50;75.60
40151;DHT22;25866;52.420;10.640;2022-09-02T16:34:06;21.40;77.00
40151;DHT22;25866;52.420;10.640;2022-09-02T16:36:35;21.30;77.10
40151;DHT22;25866;52.420;10.640;2022-09-02T16:39:02;21.30;76.80
40151;DHT22;25866;52.420;10.640;2022-09-02T16:41:34;21.30;77.50
40151;DHT22;25866;52.420;10.640;2022-09-02T16:44:02;21.30;77.10
40151;DHT22;25866;52.420;10.640;2022-09-02T16:46:28;21.30;78.00
40151;DHT22;25866;52.420;10.640;2022-09-02T16:48:54;21.30;77.70
40151;DHT22;25866;52.420;10.640;2022-09-02T16:51:21;21.30;77.70
40151;DHT22;25866;52.420;10.640;2022-09-02T16:53:59;21.30;77.50
40151;DHT22;25866;52.420;10.640;2022-09-02T16:56:25;21.30;77.90
40151;DHT22;25866;52.420;10.640;2022-09-02T16:58:52;21.20;78.00
40151;DHT22;25866;52.420;10.640;2022-09-02T17:01:19;21.10;78.60
40151;DHT22;25866;52.420;10.640;2022-09-02T17:03:46;21.10;79.00
40151;DHT22;25866;52.420;10.640;2022-09-02T17:06:12;21.00;79.00
40151;DHT22;25866;52.420;10.640;2022-09-02T17:08:38;21.00;78.30
40151;DHT22;25866;52.420;10.640;2022-09-02T17:11:18;21.00;78.70
40151;DHT22;25866;52.420;10.640;2022-09-02T17:16:23;20.90;79.00
40151;DHT22;25866;52.420;10.640;2022-09-02T17:18:49;20.90;77.80
40151;DHT22;25866;52.420;10.640;2022-09-02T17:23:53;20.80;78.00
40151;DHT22;25866;52.420;10.640;2022-09-02T17:26:21;20.90;78.50
40151;DHT22;25866;52.420;10.640;2022-09-02T17:28:47;20.80;78.00
40151;DHT22;25866;52.420;10.640;2022-09-02T17:31:17;20.80;78.40
40151;DHT22;25866;52.420;10.640;2022-09-02T17:33:44;20.80;78.10
40151;DHT22;25866;52.420;10.640;2022-09-02T17:36:10;20.70;77.80
40151;DHT22;25866;52.420;10.640;2022-09-02T17:38:36;20.70;78.00
40151;DHT22;25866;52.420;10.640;2022-09-02T17:41:01;20.60;78.60